Beaufort MCAS - Merritt Field
KNBC : now visible

Airfield :











YOU CAN JOIN US ON...

 
LOGIN :

Register | Disclaimer

   EN    FR    IT 

 









Legend :    VFR   Marginal VFR   IFR   Intensive IFR   Very Intensive IFR
Visi :
Ceiling :
>= 8 km
>= 3000ft
5 to 8 km
1000 to 3000 ft
1500m to 5 km
500 to 1000 ft
800 to 1500m
200 to 500 ft
< 800m
< 200 ft
Symbols :   Thunderstorms  Fog  Heavy snow  Heavy precipitations  Wind > 20 kt






- Airport Elevation : 37 ft


KNBC - Beaufort MCAS - Merritt Field

CURRENT METAR :
  • 100656Z 30007KT 10SM CLR 21/07 A2969 RMK AO2 SLP055 T02060072 PNO $

EXPIRED METARs :
  • 100556Z 31010KT 10SM CLR 22/08 A2971 RMK AO2 SLP061 6//// T02220083 10278 20222 51005 PNO $
  • 100456Z 30012KT 10SM CLR 23/11 A2971 RMK AO2 SLP061 T02330106 403220200 PNO $

TAF TAF KNBC
Valid from the 10 at 03:00 until the 11 at 03:00 UTC


1003/1103 29008KT 9999 FEW050 SCT150 SCT250 510013 QNH2969INS
BECMG 1013/1015 33012G21KT 9999 FEW050 SCT250 510013 QNH2982INS
FM101930 35011KT 9999 FEW250 500000 QNH2986INS T14/1011Z T21/1020Z



MET'MAP, your aeronautical weather chart ! - Copyright ORBIFLY December 2007 - Disclaimer

ORBIFLY MET'MAP TEAM :

Programming & Development : Alexandra Zaïnal
Concept & original design : Baudouin d'Aumeries
Assistance for programming : Marc-Olivier Méhu
Technical & hardware support : Manuel Goepfert

Contact : metmap@orbifly.com




SOURCES & CREDITS :

   NOAA       Earth
Advisory